Aérodrome :
LOGIN :

S'inscrire | Disclaimer

   EN    FR    IT 

 










Légende :    VFR   VFR Marginal   IFR   IFR Intensif   IFR Très Intensif
Visi : 
Plafond : 
>= 8 km
>= 3000ft
5 à 8 km
1000 à 3000 ft
1500m à 5 km
500 à 1000 ft
800 à 1500m
200 à 500 ft
< 800m
< 200 ft
Symboles :   Orages  Brouillard  Fortes neiges  Fortes précipitations  Vent > 20 kt
SIGMETs :   Divers  Orages  Givrage  Turbulence  Onde Orograph.  Cendres Volcan.







- Altitude de l'aérodrome : 485 ft
- Code IATA : QSA


LELL - Sabadell

DERNIER METAR :
  • 280730Z 22006KT 180V250 9999 FEW050 12/05 Q1009

METARs EXPIRÉS :
  • 280700Z 24004KT 200V260 9999 FEW050 12/05 Q1009
  • 280630Z AUTO 23005KT CAVOK 11/05 Q1008
  • 280600Z AUTO 27004KT CAVOK 09/05 Q1008
  • 280530Z AUTO 27007KT 9999 NCD 08/05 Q1008
  • 280500Z AUTO 27007KT 9999 NCD 08/05 Q1008
  • 280430Z AUTO 26007KT 230V290 9999 NCD 10/05 Q1008

TAF TAF LELL
Valide du 28 à 03h jusqu'au 01 à 03h UTC


280200Z 2803/0103 26008KT 9999 FEW025 TX19/2814Z TN07/2806Z
BECMG 2808/2811 25015KT
TEMPO 2810/2815 25018G28KT
BECMG 2817/2820 VRB04KT
Pas de NOTAMs connus pour ce terrain.



MET'MAP, la Météo Aéronautique d'un coup d'oeil ! - Copyright ORBIFLY Décembre 2007 - Disclaimer

ORBIFLY MET'MAP TEAM :

Programmation & Développement : Alexandra Zaïnal
Conception & Développement : Baudouin d'Aumeries
Co-Programmation & Développement : Marc-Olivier Méhu
Soutien technique & logistique : Manuel Goepfert

Contact : metmap@orbifly.com




SOURCES & CREDITS :

   NOAA